Time;durP1;ratioP1;P1;durP2;ratioP2;P2;SDS_P1;SDS_P2;PMS_P1;PMS_P2;Temp;Humidity;BMP_temperature;BMP_pressure;BME280_temperature;BME280_humidity;BME280_pressure;Samples;Min_cycle;Max_cycle;Signal;HPM_P1;HPM_P2
2022/12/19 00:00:49;;;;;;;;;;;;;;;18.28;63.53;100301.75;2083079;28;19920;-77
2022/12/19 00:01:50;;;;;;;;;;;;;;;18.27;63.53;100300.88;2081197;28;19924;-77
2022/12/19 00:02:52;;;;;;;;;;;;;;;18.27;63.77;100300.03;2080767;28;19924;-77
2022/12/19 00:03:53;;;;;;;;;;;;;;;18.24;63.64;100295.84;2081372;28;19955;-76
2022/12/19 00:04:54;;;;;;;;;;;;;;;18.22;63.59;100289.81;2081011;28;20582;-77
2022/12/19 00:05:55;;;;;;;;;;;;;;;18.22;63.86;100291.63;2081505;28;21102;-75
2022/12/19 00:06:57;;;;;;;;;;;;;;;18.22;63.63;100294.31;2080790;28;19925;-75
2022/12/19 00:07:57;;;;;;;;;;;;;;;18.22;63.84;100288.94;2080014;28;20078;-75
2022/12/19 00:08:59;;;;;;;;;;;;;;;18.22;63.60;100291.63;2080203;28;20000;-74
2022/12/19 00:10:01;;;;;;;;;;;;;;;18.20;63.78;100288.28;2081172;28;20497;-76
2022/12/19 00:11:03;;;;;;;;;;;;;;;18.19;63.84;100281.19;2080605;28;19936;-74
2022/12/19 00:12:03;;;;;;;;;;;;;;;18.18;63.78;100288.44;2080157;28;19921;-75
2022/12/19 00:13:05;;;;;;;;;;;;;;;18.17;63.77;100285.91;2080851;28;19927;-76
2022/12/19 00:14:06;;;;;;;;;;;;;;;18.17;63.81;100288.59;2080803;28;20009;-77
2022/12/19 00:15:08;;;;;;;;;;;;;;;18.17;63.86;100288.59;2081858;28;19929;-77
2022/12/19 00:16:10;;;;;;;;;;;;;;;18.15;63.69;100286.06;2081027;28;19982;-75
2022/12/19 00:17:11;;;;;;;;;;;;;;;18.14;63.79;100279.03;2069734;28;19924;-76
2022/12/19 00:18:12;;;;;;;;;;;;;;;18.16;63.74;100281.53;2082673;28;19924;-75
2022/12/19 00:19:14;;;;;;;;;;;;;;;18.14;63.79;100278.19;2079929;28;19936;-76
2022/12/19 00:20:14;;;;;;;;;;;;;;;18.14;63.65;100275.50;2080856;28;20976;-76
2022/12/19 00:21:17;;;;;;;;;;;;;;;18.14;63.65;100280.88;2080956;28;19925;-75
2022/12/19 00:22:18;;;;;;;;;;;;;;;18.10;63.62;100272.28;2077154;28;19924;-75
2022/12/19 00:23:19;;;;;;;;;;;;;;;18.07;63.81;100270.75;2081345;28;19975;-74
2022/12/19 00:24:21;;;;;;;;;;;;;;;18.05;63.87;100275.47;2080301;28;20405;-75
2022/12/19 00:25:23;;;;;;;;;;;;;;;18.07;63.77;100277.97;2079825;28;20111;-77
2022/12/19 00:26:26;;;;;;;;;;;;;;;18.06;63.89;100271.75;2081433;28;19978;-75
2022/12/19 00:27:26;;;;;;;;;;;;;;;18.04;63.99;100275.59;2081725;28;19921;-75
2022/12/19 00:28:28;;;;;;;;;;;;;;;18.02;63.84;100273.06;2080348;28;20321;-75
2022/12/19 00:29:28;;;;;;;;;;;;;;;18.02;64.02;100270.38;2080713;28;19924;-75
2022/12/19 00:30:30;;;;;;;;;;;;;;;18.01;63.93;100275.94;2081177;28;20401;-75
2022/12/19 00:31:32;;;;;;;;;;;;;;;18.01;64.03;100266.03;2080292;28;19925;-76
2022/12/19 00:32:33;;;;;;;;;;;;;;;17.98;63.78;100268.19;2080781;28;19948;-77
2022/12/19 00:33:34;;;;;;;;;;;;;;;17.98;64.02;100263.66;2080591;28;19992;-74
2022/12/19 00:34:35;;;;;;;;;;;;;;;17.97;64.04;100270.03;2080784;28;19988;-76
2022/12/19 00:35:35;;;;;;;;;;;;;;;17.96;63.91;100273.72;2080189;28;19924;-75
2022/12/19 00:36:37;;;;;;;;;;;;;;;17.94;63.97;100267.69;2080959;28;19932;-75
2022/12/19 00:37:38;;;;;;;;;;;;;;;17.93;63.83;100268.66;2080293;28;19947;-76
2022/12/19 00:38:39;;;;;;;;;;;;;;;17.92;63.95;100267.00;2079010;28;20039;-74
2022/12/19 00:39:40;;;;;;;;;;;;;;;17.90;64.10;100262.78;2078049;28;19931;-75
2022/12/19 00:40:43;;;;;;;;;;;;;;;17.91;64.23;100261.78;2080191;28;19931;-77
2022/12/19 00:41:44;;;;;;;;;;;;;;;17.89;64.04;100258.41;2080373;28;19984;-75
2022/12/19 00:42:45;;;;;;;;;;;;;;;17.91;64.13;100256.41;2078557;28;19995;-74
2022/12/19 00:43:51;;;;;;;;;;;;;;;17.90;64.05;100260.94;2078189;28;20417;-75
2022/12/19 00:44:53;;;;;;;;;;;;;;;17.89;63.87;100261.94;2078450;28;20398;-75
2022/12/19 00:45:53;;;;;;;;;;;;;;;17.87;64.04;100261.25;2080399;28;19936;-75
2022/12/19 00:46:55;;;;;;;;;;;;;;;17.86;64.26;100267.63;2078582;28;20583;-76
2022/12/19 00:47:56;;;;;;;;;;;;;;;17.85;64.09;100272.13;2080407;28;19982;-77
2022/12/19 00:48:57;;;;;;;;;;;;;;;17.83;64.09;100271.47;2080227;28;19928;-77
2022/12/19 00:50:00;;;;;;;;;;;;;;;17.83;64.05;100267.97;2079164;28;19924;-75
2022/12/19 00:51:02;;;;;;;;;;;;;;;17.83;63.99;100276.00;2080643;28;20011;-76
2022/12/19 00:52:02;;;;;;;;;;;;;;;17.80;64.21;100278.97;2079859;28;19924;-75
2022/12/19 00:53:04;;;;;;;;;;;;;;;17.80;64.33;100277.16;2080513;28;19924;-75
2022/12/19 00:54:04;;;;;;;;;;;;;;;17.79;64.11;100263.88;2080519;28;20597;-74
2022/12/19 00:55:06;;;;;;;;;;;;;;;17.79;64.11;100269.25;2080679;28;19921;-74
2022/12/19 00:56:10;;;;;;;;;;;;;;;17.78;64.27;100270.22;2080554;28;19925;-75
2022/12/19 00:57:11;;;;;;;;;;;;;;;17.75;64.19;100267.88;2076793;28;19929;-75
2022/12/19 00:58:12;;;;;;;;;;;;;;;17.74;64.31;100272.38;2076885;28;19928;-75
2022/12/19 00:59:13;;;;;;;;;;;;;;;17.73;64.19;100270.69;2079777;28;20279;-75
2022/12/19 01:00:14;;;;;;;;;;;;;;;17.71;64.19;100269.16;2077920;28;19936;-75
2022/12/19 01:01:17;;;;;;;;;;;;;;;17.71;64.35;100272.69;2077828;28;19921;-75
2022/12/19 01:02:17;;;;;;;;;;;;;;;17.71;64.10;100269.16;2078395;28;19985;-75
2022/12/19 01:03:19;;;;;;;;;;;;;;;17.71;64.15;100275.38;2081348;28;20549;-76
2022/12/19 01:04:20;;;;;;;;;;;;;;;17.74;64.09;100276.91;2079518;28;19932;-75
2022/12/19 01:05:21;;;;;;;;;;;;;;;17.71;64.01;100271.84;2080992;28;19946;-75
2022/12/19 01:06:22;;;;;;;;;;;;;;;17.72;64.10;100270.84;2079968;28;20424;-76
2022/12/19 01:07:23;;;;;;;;;;;;;;;17.69;64.29;100272.03;2081646;28;20054;-77
2022/12/19 01:08:24;;;;;;;;;;;;;;;17.69;64.27;100279.22;2081681;28;19928;-74
2022/12/19 01:09:25;;;;;;;;;;;;;;;17.69;64.25;100276.53;2082915;28;20526;-76
2022/12/19 01:10:26;;;;;;;;;;;;;;;17.68;64.27;100278.38;2079719;28;19932;-74
2022/12/19 01:12:47;;;;;;;;;;;;;;;17.65;64.15;100282.22;2079923;28;19928;-77
2022/12/19 01:13:47;;;;;;;;;;;;;;;17.64;64.23;100283.22;2081084;28;19944;-75
2022/12/19 01:14:48;;;;;;;;;;;;;;;17.64;64.23;100277.03;2081874;28;19925;-77
2022/12/19 01:15:49;;;;;;;;;;;;;;;17.64;64.10;100285.06;2080903;28;19924;-74
2022/12/19 01:16:50;;;;;;;;;;;;;;;17.61;64.18;100280.84;2080344;28;19920;-74
2022/12/19 01:17:51;;;;;;;;;;;;;;;17.61;64.16;100285.38;2080923;28;19920;-74
2022/12/19 01:18:52;;;;;;;;;;;;;;;17.60;64.24;100286.38;2082407;28;19924;-75
2022/12/19 01:19:53;;;;;;;;;;;;;;;17.59;64.22;100282.84;2081417;28;19928;-76
2022/12/19 01:20:54;;;;;;;;;;;;;;;17.59;64.27;100284.69;2080612;28;19925;-75
2022/12/19 01:21:55;;;;;;;;;;;;;;;17.56;64.32;100285.84;2080112;28;20463;-74
2022/12/19 01:22:56;;;;;;;;;;;;;;;17.55;64.40;100284.19;2079581;28;19928;-77
2022/12/19 01:23:57;;;;;;;;;;;;;;;17.55;64.50;100283.31;2081358;28;19921;-75
2022/12/19 01:24:58;;;;;;;;;;;;;;;17.53;64.38;100277.28;2080706;28;19925;-77
2022/12/19 01:26:00;;;;;;;;;;;;;;;17.52;64.41;100287.13;2081366;28;19936;-77
2022/12/19 01:27:02;;;;;;;;;;;;;;;17.51;64.50;100277.41;2080788;28;19921;-76
2022/12/19 01:28:04;;;;;;;;;;;;;;;17.51;64.43;100276.59;2081123;28;19921;-74
2022/12/19 01:29:04;;;;;;;;;;;;;;;17.51;64.40;100277.41;2078714;28;19999;-75
2022/12/19 01:30:07;;;;;;;;;;;;;;;17.49;64.35;100279.41;2080310;28;19936;-75
2022/12/19 01:31:07;;;;;;;;;;;;;;;17.49;64.59;100289.31;2080266;28;19969;-75
2022/12/19 01:32:09;;;;;;;;;;;;;;;17.46;64.44;100285.09;2079278;28;19927;-76
2022/12/19 01:33:11;;;;;;;;;;;;;;;17.45;64.47;100280.72;2069667;28;19931;-75
2022/12/19 01:34:13;;;;;;;;;;;;;;;17.47;64.44;100286.78;2081877;28;20312;-75
2022/12/19 01:35:13;;;;;;;;;;;;;;;17.45;64.49;100288.78;2080350;28;20401;-75
2022/12/19 01:36:15;;;;;;;;;;;;;;;17.43;64.38;100296.13;2080530;28;20026;-76
2022/12/19 01:37:18;;;;;;;;;;;;;;;17.42;64.63;100297.16;2080895;28;19921;-75
2022/12/19 01:38:20;;;;;;;;;;;;;;;17.41;64.50;100296.31;2081511;28;19929;-74
2022/12/19 01:39:21;;;;;;;;;;;;;;;17.40;64.56;100293.75;2080442;28;19936;-76
2022/12/19 01:40:23;;;;;;;;;;;;;;;17.41;64.43;100292.75;2080213;28;19975;-74
2022/12/19 01:41:23;;;;;;;;;;;;;;;17.38;64.64;100295.75;2082123;28;19924;-75
2022/12/19 01:42:26;;;;;;;;;;;;;;;17.38;64.53;100295.75;2082037;28;19983;-75
2022/12/19 01:43:28;;;;;;;;;;;;;;;17.36;64.50;100300.44;2081214;28;19931;-75
2022/12/19 01:44:31;;;;;;;;;;;;;;;17.33;64.59;100298.09;2080122;28;20533;-76
2022/12/19 01:45:33;;;;;;;;;;;;;;;17.34;64.51;100291.72;2078556;28;19997;-75
2022/12/19 01:46:37;;;;;;;;;;;;;;;17.32;64.60;100293.69;2081419;28;20585;-74
2022/12/19 01:47:44;;;;;;;;;;;;;;;17.31;64.51;100289.34;2080326;28;19921;-75
2022/12/19 01:48:46;;;;;;;;;;;;;;;17.30;64.71;100298.38;2082487;28;19929;-77
2022/12/19 01:49:46;;;;;;;;;;;;;;;17.29;64.66;100300.22;2081545;28;19925;-76
2022/12/19 01:50:51;;;;;;;;;;;;;;;17.28;64.73;100295.84;2082929;28;20301;-76
2022/12/19 01:51:55;;;;;;;;;;;;;;;17.29;64.73;100296.69;2080932;28;19933;-75
2022/12/19 01:52:57;;;;;;;;;;;;;;;17.27;64.75;100290.63;2081849;28;19928;-74
2022/12/19 01:53:58;;;;;;;;;;;;;;;17.26;64.53;100294.31;2080085;28;19924;-75
2022/12/19 01:55:01;;;;;;;;;;;;;;;17.25;64.68;100296.16;2082616;28;19924;-76
2022/12/19 01:56:04;;;;;;;;;;;;;;;17.25;64.77;100298.00;2080974;28;19993;-75
2022/12/19 01:57:08;;;;;;;;;;;;;;;17.24;64.70;100294.47;2082601;28;19920;-75
2022/12/19 01:58:11;;;;;;;;;;;;;;;17.23;64.89;100289.28;2080987;28;19951;-75
2022/12/19 01:59:14;;;;;;;;;;;;;;;17.19;64.82;100289.59;2081511;28;19925;-74
2022/12/19 02:00:15;;;;;;;;;;;;;;;17.19;64.75;100284.22;2083027;28;19974;-75
2022/12/19 02:01:17;;;;;;;;;;;;;;;17.20;64.74;100290.41;2082569;28;19924;-75
2022/12/19 02:02:20;;;;;;;;;;;;;;;17.18;64.84;100290.56;2082180;28;19924;-74
2022/12/19 02:03:25;;;;;;;;;;;;;;;17.17;64.81;100291.56;2080557;28;19975;-75
2022/12/19 02:04:26;;;;;;;;;;;;;;;17.16;64.96;100289.88;2083474;28;19924;-75
2022/12/19 02:05:28;;;;;;;;;;;;;;;17.16;64.79;100289.03;2082341;28;19994;-75
2022/12/19 02:06:30;;;;;;;;;;;;;;;17.15;64.82;100292.72;2081506;28;20664;-75
2022/12/19 02:07:32;;;;;;;;;;;;;;;17.14;64.74;100289.19;2082228;28;19925;-75
2022/12/19 02:08:33;;;;;;;;;;;;;;;17.14;64.99;100294.56;2081058;28;20649;-74
2022/12/19 02:09:36;;;;;;;;;;;;;;;17.13;64.88;100294.69;2081603;28;19929;-76
2022/12/19 02:10:37;;;;;;;;;;;;;;;17.13;64.98;100297.38;2079477;28;19994;-76
2022/12/19 02:11:38;;;;;;;;;;;;;;;17.11;65.02;100296.72;2081976;28;20585;-76
2022/12/19 02:12:42;;;;;;;;;;;;;;;17.11;64.87;100291.34;2081056;28;19928;-76
2022/12/19 02:13:45;;;;;;;;;;;;;;;17.10;64.77;100295.84;2081484;28;19928;-75
2022/12/19 02:14:46;;;;;;;;;;;;;;;17.09;64.97;100296.00;2081414;28;20410;-75
2022/12/19 02:15:52;;;;;;;;;;;;;;;17.09;64.80;100288.81;2082368;28;19968;-75
2022/12/19 02:16:59;;;;;;;;;;;;;;;17.08;64.95;100291.66;2080963;28;19928;-77
2022/12/19 02:18:08;;;;;;;;;;;;;;;17.07;64.93;100288.09;2071547;28;19929;-75
2022/12/19 02:19:19;;;;;;;;;;;;;;;17.07;64.97;100295.31;2079801;28;19928;-75
2022/12/19 02:20:39;;;;;;;;;;;;;;;17.06;64.94;100288.28;2081647;28;19941;-76
2022/12/19 02:21:44;;;;;;;;;;;;;;;17.02;64.95;100290.44;2082171;28;19920;-76
2022/12/19 02:22:55;;;;;;;;;;;;;;;17.01;64.91;100283.38;2081889;28;20094;-74
2022/12/19 02:24:15;;;;;;;;;;;;;;;17.02;64.95;100285.06;2080342;28;19925;-75
2022/12/19 02:25:38;;;;;;;;;;;;;;;16.99;64.90;100277.31;2082617;28;19933;-74
2022/12/19 02:26:55;;;;;;;;;;;;;;;16.99;65.00;100277.31;2080892;28;20289;-74
2022/12/19 02:28:18;;;;;;;;;;;;;;;16.99;65.02;100277.31;2083199;28;19924;-77
2022/12/19 02:29:34;;;;;;;;;;;;;;;16.98;65.04;100275.63;2081409;28;19935;-74
2022/12/19 02:30:42;;;;;;;;;;;;;;;16.97;64.98;100274.81;2082018;28;19960;-77
2022/12/19 02:31:45;;;;;;;;;;;;;;;16.96;64.98;100272.25;2080314;28;19970;-77
2022/12/19 02:32:58;;;;;;;;;;;;;;;16.95;65.10;100278.63;2082891;28;20286;-75
2022/12/19 02:34:03;;;;;;;;;;;;;;;16.93;65.12;100273.41;2081746;28;20365;-74
2022/12/19 02:35:09;;;;;;;;;;;;;;;16.94;64.90;100276.94;2081902;28;19921;-76
2022/12/19 02:36:14;;;;;;;;;;;;;;;16.93;65.12;100277.94;2081929;28;19924;-75
2022/12/19 02:37:19;;;;;;;;;;;;;;;16.90;64.96;100279.06;2082538;28;19947;-77
2022/12/19 02:38:22;;;;;;;;;;;;;;;16.88;65.31;100275.72;2081362;28;20512;-76
2022/12/19 02:39:26;;;;;;;;;;;;;;;16.86;65.17;100277.72;2082461;28;20282;-75
2022/12/19 02:40:30;;;;;;;;;;;;;;;16.88;65.19;100280.22;2081805;28;19937;-75
2022/12/19 02:41:42;;;;;;;;;;;;;;;16.88;65.32;100278.41;2081956;28;19931;-76
2022/12/19 02:42:44;;;;;;;;;;;;;;;16.87;65.05;100273.19;2082083;28;19997;-75
2022/12/19 02:43:47;;;;;;;;;;;;;;;16.86;65.19;100282.22;2081686;28;19941;-76
2022/12/19 02:44:49;;;;;;;;;;;;;;;16.87;65.14;100283.91;2084458;28;19978;-76
2022/12/19 02:45:52;;;;;;;;;;;;;;;16.87;65.13;100279.38;2084100;28;19928;-74
2022/12/19 02:46:53;;;;;;;;;;;;;;;16.88;65.31;100285.56;2084038;28;22801;-76
2022/12/19 02:47:54;;;;;;;;;;;;;;;16.85;65.10;100284.03;2082425;28;20002;-75
2022/12/19 02:48:55;;;;;;;;;;;;;;;16.85;65.09;100288.56;2081818;28;19921;-74
2022/12/19 02:49:57;;;;;;;;;;;;;;;16.84;65.16;100289.56;2085277;28;20369;-75
2022/12/19 02:50:57;;;;;;;;;;;;;;;16.84;65.07;100287.72;2084640;28;20006;-76
2022/12/19 02:52:08;;;;;;;;;;;;;;;16.81;65.12;100287.19;2083438;28;19920;-75
2022/12/19 02:53:09;;;;;;;;;;;;;;;16.80;65.30;100285.50;2081450;28;19924;-76
2022/12/19 02:54:11;;;;;;;;;;;;;;;16.80;65.25;100274.78;2079910;28;19945;-76
2022/12/19 02:55:13;;;;;;;;;;;;;;;16.77;65.24;100278.63;2078696;28;19936;-75
2022/12/19 02:56:23;;;;;;;;;;;;;;;16.78;65.21;100274.09;2081232;28;20169;-74
2022/12/19 02:57:27;;;;;;;;;;;;;;;16.78;65.17;100272.25;2080658;28;19936;-74
2022/12/19 02:58:39;;;;;;;;;;;;;;;16.79;65.18;100273.09;2079609;28;19982;-76
2022/12/19 02:59:46;;;;;;;;;;;;;;;16.75;65.15;100273.38;2079533;28;19936;-75
2022/12/19 03:00:54;;;;;;;;;;;;;;;16.77;65.28;100272.41;2079815;28;19962;-74
2022/12/19 03:02:02;;;;;;;;;;;;;;;16.74;65.22;100271.69;2079266;28;19981;-75
2022/12/19 03:03:10;;;;;;;;;;;;;;;16.71;65.25;100266.63;2079257;28;19928;-76
2022/12/19 03:04:16;;;;;;;;;;;;;;;16.72;65.33;100273.69;2079654;28;19990;-74
2022/12/19 03:05:23;;;;;;;;;;;;;;;16.74;65.23;100268.16;2080056;28;19940;-76
2022/12/19 03:06:27;;;;;;;;;;;;;;;16.71;65.16;100280.00;2081710;28;19925;-75
2022/12/19 03:07:31;;;;;;;;;;;;;;;16.71;65.31;100274.66;2079974;28;19929;-76
2022/12/19 03:08:36;;;;;;;;;;;;;;;16.74;65.10;100273.50;2080940;28;19928;-75
2022/12/19 03:09:40;;;;;;;;;;;;;;;16.73;65.15;100277.19;2077026;28;20010;-75
2022/12/19 03:10:43;;;;;;;;;;;;;;;16.70;65.15;100270.31;2080667;28;20019;-75
2022/12/19 03:11:46;;;;;;;;;;;;;;;16.70;65.25;100264.94;2076562;28;19970;-76
2022/12/19 03:12:49;;;;;;;;;;;;;;;16.70;65.16;100264.94;2077837;28;19969;-76
2022/12/19 03:13:54;;;;;;;;;;;;;;;16.70;65.23;100261.44;2078680;28;19990;-76
2022/12/19 03:14:56;;;;;;;;;;;;;;;16.69;65.18;100267.78;2079125;28;19951;-75
2022/12/19 03:15:58;;;;;;;;;;;;;;;16.68;65.30;100272.28;2078162;28;19932;-75
2022/12/19 03:17:03;;;;;;;;;;;;;;;16.68;65.17;100272.28;2076828;28;19925;-76
2022/12/19 03:18:05;;;;;;;;;;;;;;;16.68;65.17;100274.97;2080762;28;19925;-75
2022/12/19 03:19:07;;;;;;;;;;;;;;;16.66;65.27;100270.75;2078986;28;20442;-75
2022/12/19 03:20:14;;;;;;;;;;;;;;;16.66;65.41;100265.38;2080277;28;19932;-76
2022/12/19 03:21:19;;;;;;;;;;;;;;;16.65;65.25;100259.19;2079831;28;19928;-76
2022/12/19 03:22:20;;;;;;;;;;;;;;;16.63;65.27;100263.88;2079554;28;20668;-76
2022/12/19 03:23:21;;;;;;;;;;;;;;;16.63;65.30;100263.00;2079579;28;19936;-75
2022/12/19 03:24:23;;;;;;;;;;;;;;;16.64;65.11;100267.41;2079422;28;19924;-76
2022/12/19 03:25:24;;;;;;;;;;;;;;;16.60;65.21;100258.78;2081704;28;20484;-75
2022/12/19 03:26:28;;;;;;;;;;;;;;;16.64;65.20;100262.03;2082133;28;21705;-75
2022/12/19 03:27:32;;;;;;;;;;;;;;;16.64;65.23;100264.72;2079568;28;19989;-76
2022/12/19 03:28:37;;;;;;;;;;;;;;;16.64;65.13;100260.19;2078334;28;19929;-76
2022/12/19 03:29:38;;;;;;;;;;;;;;;16.63;65.18;100263.88;2069677;28;19936;-77
2022/12/19 03:30:41;;;;;;;;;;;;;;;16.62;65.17;100267.53;2079266;28;19932;-76
2022/12/19 03:31:44;;;;;;;;;;;;;;;16.58;65.13;100268.84;2077852;28;20438;-74
2022/12/19 03:32:47;;;;;;;;;;;;;;;16.60;65.51;100274.88;2080042;28;20430;-74
2022/12/19 03:33:50;;;;;;;;;;;;;;;16.59;65.13;100259.81;2078625;28;22215;-75
2022/12/19 03:34:53;;;;;;;;;;;;;;;16.58;65.08;100260.81;2079665;28;20806;-75
2022/12/19 03:35:56;;;;;;;;;;;;;;;16.58;65.19;100268.00;2077866;28;19935;-74
2022/12/19 03:36:59;;;;;;;;;;;;;;;16.57;65.30;100268.97;2078368;28;19925;-75
2022/12/19 03:38:02;;;;;;;;;;;;;;;16.54;65.25;100267.44;2078192;28;19978;-74
2022/12/19 03:39:06;;;;;;;;;;;;;;;16.56;65.27;100269.97;2078714;28;20849;-77
2022/12/19 03:40:08;;;;;;;;;;;;;;;16.56;65.24;100273.50;2078555;28;19948;-76
2022/12/19 03:41:10;;;;;;;;;;;;;;;16.55;65.28;100269.16;2082720;28;20382;-75
2022/12/19 03:43:46;;;;;;;;;;;;;;;16.56;65.13;100275.34;2061996;28;20309;-74
2022/12/19 03:44:48;;;;;;;;;;;;;;;16.51;65.26;100263.22;2061189;28;19941;-76
2022/12/19 03:45:53;;;;;;;;;;;;;;;16.51;65.35;100275.78;2063003;28;20020;-76
2022/12/19 03:46:57;;;;;;;;;;;;;;;16.52;65.18;100280.16;2059725;28;19929;-75
2022/12/19 03:48:02;;;;;;;;;;;;;;;16.49;65.36;100275.94;2063596;28;20015;-76
2022/12/19 03:49:02;;;;;;;;;;;;;;;16.47;65.37;100272.56;2061889;28;19925;-74
2022/12/19 03:50:05;;;;;;;;;;;;;;;16.50;65.25;100274.09;2079826;28;19931;-76
2022/12/19 03:51:08;;;;;;;;;;;;;;;16.49;65.25;100278.63;2081056;28;20368;-76
2022/12/19 03:52:17;;;;;;;;;;;;;;;16.46;65.37;100278.06;2080570;28;19921;-75
2022/12/19 03:53:22;;;;;;;;;;;;;;;16.46;65.40;100276.22;2078611;28;19921;-75
2022/12/19 03:54:25;;;;;;;;;;;;;;;16.42;65.36;100274.84;2079022;28;19925;-75
2022/12/19 03:55:30;;;;;;;;;;;;;;;16.43;65.43;100273.84;2078227;28;19944;-75
2022/12/19 03:56:37;;;;;;;;;;;;;;;16.45;65.44;100279.06;2079278;28;19940;-76
2022/12/19 03:57:39;;;;;;;;;;;;;;;16.46;65.29;100272.69;2077010;28;20301;-75
2022/12/19 03:58:45;;;;;;;;;;;;;;;16.43;65.23;100273.00;2079623;28;19924;-76
2022/12/19 03:59:50;;;;;;;;;;;;;;;16.47;65.13;100279.75;2079766;28;19924;-75
2022/12/19 04:00:51;;;;;;;;;;;;;;;16.45;65.23;100276.38;2075458;28;20440;-76
2022/12/19 04:01:52;;;;;;;;;;;;;;;16.42;65.31;100284.72;2077473;28;20023;-76
2022/12/19 04:02:56;;;;;;;;;;;;;;;16.42;65.32;100282.03;2078029;28;19932;-74
2022/12/19 04:03:58;;;;;;;;;;;;;;;16.40;65.39;100284.84;2080733;28;19956;-76
2022/12/19 04:05:02;;;;;;;;;;;;;;;16.41;65.32;100278.53;2077926;28;20097;-76
2022/12/19 04:06:04;;;;;;;;;;;;;;;16.39;65.32;100277.00;2079270;28;19935;-75
2022/12/19 04:07:06;;;;;;;;;;;;;;;16.40;65.40;100281.34;2079665;28;20324;-76
2022/12/19 04:08:07;;;;;;;;;;;;;;;16.37;65.40;100274.44;2079442;28;20934;-76
2022/12/19 04:09:10;;;;;;;;;;;;;;;16.39;65.42;100268.97;2078493;28;19924;-75
2022/12/19 04:10:13;;;;;;;;;;;;;;;16.37;65.42;100277.13;2079550;28;20407;-74
2022/12/19 04:11:16;;;;;;;;;;;;;;;16.38;65.24;100276.16;2076458;28;19929;-75
2022/12/19 04:12:20;;;;;;;;;;;;;;;16.38;65.39;100267.25;2076519;28;19928;-76
2022/12/19 04:13:26;;;;;;;;;;;;;;;16.37;65.29;100265.56;2079165;28;20004;-76
2022/12/19 04:14:27;;;;;;;;;;;;;;;16.35;65.37;100268.38;2078789;28;19924;-75
2022/12/19 04:15:35;;;;;;;;;;;;;;;16.35;65.33;100279.09;2078787;28;20386;-76
2022/12/19 04:16:38;;;;;;;;;;;;;;;16.34;65.29;100269.38;2079286;28;19981;-75
2022/12/19 04:17:44;;;;;;;;;;;;;;;16.35;65.36;100280.94;2078662;28;20715;-75
2022/12/19 04:18:46;;;;;;;;;;;;;;;16.35;65.36;100280.94;2078277;28;19944;-75
2022/12/19 04:19:53;;;;;;;;;;;;;;;16.33;65.40;100278.44;2079461;28;19925;-75
2022/12/19 04:20:56;;;;;;;;;;;;;;;16.31;65.46;100283.91;2079889;28;19980;-75
2022/12/19 04:22:02;;;;;;;;;;;;;;;16.33;65.36;100285.63;2077090;28;19931;-76
2022/12/19 04:23:05;;;;;;;;;;;;;;;16.34;65.42;100281.94;2079638;28;20003;-76
2022/12/19 04:24:10;;;;;;;;;;;;;;;16.30;65.35;100278.72;2077165;28;20372;-75
2022/12/19 04:25:12;;;;;;;;;;;;;;;16.29;65.35;100275.19;2079277;28;19956;-76
2022/12/19 04:26:16;;;;;;;;;;;;;;;16.28;65.31;100278.88;2080059;28;19929;-75
2022/12/19 04:27:17;;;;;;;;;;;;;;;16.28;65.37;100278.03;2078502;28;19932;-74
2022/12/19 04:28:22;;;;;;;;;;;;;;;16.30;65.24;100274.22;2080935;28;19968;-74
2022/12/19 04:29:23;;;;;;;;;;;;;;;16.29;65.35;100275.19;2080709;28;19928;-75
2022/12/19 04:30:25;;;;;;;;;;;;;;;16.28;65.38;100272.66;2077615;28;20324;-75
2022/12/19 04:31:26;;;;;;;;;;;;;;;16.29;65.29;100277.03;2078697;28;19932;-76
2022/12/19 04:32:28;;;;;;;;;;;;;;;16.27;65.26;100277.19;2076143;28;20260;-75
2022/12/19 04:33:29;;;;;;;;;;;;;;;16.25;65.43;100273.81;2078288;28;19932;-75
2022/12/19 04:34:34;;;;;;;;;;;;;;;16.26;65.48;100269.28;2078125;28;19969;-75
2022/12/19 04:35:36;;;;;;;;;;;;;;;16.24;65.45;100266.78;2067987;28;19943;-76
2022/12/19 04:36:38;;;;;;;;;;;;;;;16.26;65.30;100272.81;2077522;28;19955;-75
2022/12/19 04:37:38;;;;;;;;;;;;;;;16.23;65.37;100270.44;2077042;28;20363;-75
2022/12/19 04:38:40;;;;;;;;;;;;;;;16.25;65.24;100273.81;2080237;28;19929;-75
2022/12/19 04:39:41;;;;;;;;;;;;;;;16.24;65.44;100274.81;2077792;28;19920;-75
2022/12/19 04:40:42;;;;;;;;;;;;;;;16.24;65.26;100277.50;2078312;28;19939;-77
2022/12/19 04:41:43;;;;;;;;;;;;;;;16.24;65.36;100276.63;2076155;28;20352;-76
2022/12/19 04:42:44;;;;;;;;;;;;;;;16.21;65.41;100275.06;2079609;28;19921;-75
2022/12/19 04:43:45;;;;;;;;;;;;;;;16.22;65.44;100274.09;2076126;28;19928;-76
2022/12/19 04:44:46;;;;;;;;;;;;;;;16.20;65.37;100273.41;2079784;28;19931;-75
2022/12/19 04:45:47;;;;;;;;;;;;;;;16.21;65.33;100271.56;2076782;28;19921;-76
2022/12/19 04:46:48;;;;;;;;;;;;;;;16.20;65.41;100275.25;2077871;28;19940;-74
2022/12/19 04:47:49;;;;;;;;;;;;;;;16.22;65.38;100279.47;2079109;28;19962;-76
2022/12/19 04:48:50;;;;;;;;;;;;;;;16.19;65.28;100274.41;2080018;28;19951;-75
2022/12/19 04:49:51;;;;;;;;;;;;;;;16.18;65.39;100278.06;2078904;28;19925;-76
2022/12/19 04:50:54;;;;;;;;;;;;;;;16.26;65.16;100282.69;2080912;28;19935;-75
2022/12/19 04:51:55;;;;;;;;;;;;;;;16.30;65.01;100281.41;2080428;28;20231;-75
2022/12/19 04:52:59;;;;;;;;;;;;;;;16.35;64.83;100278.25;2079491;28;19974;-74
2022/12/19 04:54:00;;;;;;;;;;;;;;;16.46;64.55;100270.03;2081600;28;19928;-74
2022/12/19 04:55:01;;;;;;;;;;;;;;;16.54;64.44;100280.84;2080347;28;20534;-74
2022/12/19 04:56:02;;;;;;;;;;;;;;;16.58;64.35;100273.38;2081050;28;19940;-74
2022/12/19 04:57:04;;;;;;;;;;;;;;;16.67;64.19;100281.31;2079949;28;20333;-74
2022/12/19 04:58:04;;;;;;;;;;;;;;;16.73;64.13;100283.41;2081187;28;20389;-76
2022/12/19 04:59:06;;;;;;;;;;;;;;;16.81;63.99;100284.53;2080472;28;19932;-75
2022/12/19 05:00:07;;;;;;;;;;;;;;;16.84;63.96;100277.00;2080270;28;20339;-75
2022/12/19 05:01:09;;;;;;;;;;;;;;;16.91;63.80;100280.78;2078883;28;20012;-74
2022/12/19 05:02:09;;;;;;;;;;;;;;;16.94;63.77;100282.31;2079824;28;19920;-74
2022/12/19 05:03:11;;;;;;;;;;;;;;;16.99;63.70;100277.31;2080726;28;20011;-75
2022/12/19 05:04:12;;;;;;;;;;;;;;;17.01;63.87;100280.69;2080289;28;20446;-76
2022/12/19 05:05:13;;;;;;;;;;;;;;;17.04;63.74;100285.75;2080467;28;19932;-75
2022/12/19 05:06:15;;;;;;;;;;;;;;;17.09;63.62;100283.44;2081574;28;19974;-74
2022/12/19 05:07:20;;;;;;;;;;;;;;;17.13;63.72;100278.63;2077900;28;20238;-75
2022/12/19 05:08:21;;;;;;;;;;;;;;;17.15;63.67;100282.81;2080617;28;19929;-75
2022/12/19 05:09:22;;;;;;;;;;;;;;;17.15;63.49;100277.47;2080158;28;19924;-75
2022/12/19 05:10:23;;;;;;;;;;;;;;;17.19;63.40;100291.44;2080796;28;20367;-75
2022/12/19 05:11:25;;;;;;;;;;;;;;;17.19;63.71;100286.91;2080302;28;19928;-76
2022/12/19 05:12:27;;;;;;;;;;;;;;;17.20;63.57;100287.72;2080151;28;19991;-76
2022/12/19 05:13:29;;;;;;;;;;;;;;;17.25;63.76;100292.66;2081003;28;19936;-75
2022/12/19 05:14:29;;;;;;;;;;;;;;;17.26;63.67;100289.78;2082276;28;19951;-75
2022/12/19 05:15:31;;;;;;;;;;;;;;;17.28;63.75;100289.66;2081428;28;20317;-75
2022/12/19 05:16:31;;;;;;;;;;;;;;;17.31;63.70;100286.66;2083492;28;21480;-75
2022/12/19 05:17:33;;;;;;;;;;;;;;;17.32;63.61;100291.00;2081751;28;19944;-76
2022/12/19 05:18:34;;;;;;;;;;;;;;;17.36;63.43;100289.72;2071850;28;20250;-76
2022/12/19 05:19:36;;;;;;;;;;;;;;;17.38;63.62;100287.72;2081557;28;20305;-76
2022/12/19 05:20:36;;;;;;;;;;;;;;;17.37;63.50;100289.56;2081699;28;19925;-76
2022/12/19 05:21:40;;;;;;;;;;;;;;;17.40;63.52;100283.88;2084064;28;19974;-75
2022/12/19 05:22:41;;;;;;;;;;;;;;;17.42;63.63;100286.41;2081779;28;19974;-77
2022/12/19 05:23:42;;;;;;;;;;;;;;;17.45;63.47;100277.22;2082815;28;19955;-76
2022/12/19 05:24:43;;;;;;;;;;;;;;;17.47;63.39;100283.25;2080113;28;20481;-76
2022/12/19 05:25:45;;;;;;;;;;;;;;;17.49;63.43;100278.56;2080625;28;20015;-75